createdAt,value
2022-11-24T00:03:28.409Z,0.99
2022-11-24T00:09:30.220Z,0.48
2022-11-24T00:15:32.040Z,0.82
2022-11-24T00:21:33.890Z,0.12
2022-11-24T00:27:35.696Z,-0.02
2022-11-24T00:33:37.537Z,0.79
2022-11-24T00:39:39.466Z,1.16
2022-11-24T00:45:42.550Z,1.09
2022-11-24T00:51:44.698Z,1.23
2022-11-24T00:57:46.570Z,0.95
2022-11-24T01:03:48.749Z,1.20
2022-11-24T01:09:50.478Z,0.84
2022-11-24T01:15:53.051Z,1.20
2022-11-24T01:21:55.018Z,0.95
2022-11-24T01:27:56.939Z,0.19
2022-11-24T01:33:59.026Z,0.49
2022-11-24T01:40:01.013Z,0.81
2022-11-24T01:46:20.525Z,0.68
2022-11-24T01:52:24.909Z,0.89
2022-11-24T01:58:32.504Z,0.76
2022-11-24T02:04:36.218Z,0.46
2022-11-24T02:10:39.246Z,0.71
2022-11-24T02:16:44.217Z,0.98
2022-11-24T02:23:01.260Z,0.71
2022-11-24T02:29:04.380Z,0.55
2022-11-24T02:35:08.643Z,0.52
2022-11-24T02:41:14.061Z,0.64
2022-11-24T02:47:16.215Z,0.47
2022-11-24T02:53:18.729Z,1.03
2022-11-24T02:59:20.571Z,0.99
2022-11-24T03:05:22.395Z,0.69
2022-11-24T03:11:24.368Z,0.51
2022-11-24T03:17:26.267Z,-0.17
2022-11-24T03:23:28.253Z,-0.10
2022-11-24T03:29:30.421Z,0.35
2022-11-24T03:35:32.345Z,-0.16
2022-11-24T03:41:34.209Z,0.29
2022-11-24T03:47:36.067Z,0.63
2022-11-24T03:53:38.035Z,-0.05
2022-11-24T03:59:40.065Z,0.49
2022-11-24T04:05:42.046Z,0.09
2022-11-24T04:12:02.245Z,0.21
2022-11-24T04:18:04.256Z,0.50
2022-11-24T04:24:06.598Z,0.60
2022-11-24T04:30:08.839Z,-0.17
2022-11-24T04:36:12.975Z,0.36
2022-11-24T04:42:15.251Z,0.45
2022-11-24T04:48:17.964Z,-0.60
2022-11-24T04:54:19.706Z,0.02
2022-11-24T05:00:21.782Z,0.09
2022-11-24T05:06:23.879Z,-0.07
2022-11-24T05:12:31.144Z,0.17
2022-11-24T05:18:33.684Z,-0.03
2022-11-24T05:24:35.802Z,0.05
2022-11-24T05:30:39.799Z,-0.53
2022-11-24T05:36:53.625Z,0.27
2022-11-24T05:42:55.599Z,0.35
2022-11-24T05:48:57.783Z,0.04
2022-11-24T05:55:04.220Z,-0.07
2022-11-24T06:01:07.279Z,0.06
2022-11-24T06:07:11.702Z,0.06
2022-11-24T06:13:13.855Z,0.19
2022-11-24T06:19:15.875Z,0.23
2022-11-24T06:25:18.108Z,-0.04
2022-11-24T06:31:20.147Z,-0.03
2022-11-24T06:37:22.021Z,-0.53
2022-11-24T06:43:23.773Z,-0.39
2022-11-24T06:49:28.679Z,-0.33
2022-11-24T06:55:30.846Z,-0.77
2022-11-24T07:01:32.781Z,0.03
2022-11-24T07:07:34.722Z,0.10
2022-11-24T07:13:37.603Z,0.31
2022-11-24T07:19:39.587Z,-0.29
2022-11-24T07:25:41.450Z,0.27
2022-11-24T07:31:43.652Z,0.30
2022-11-24T07:37:45.422Z,0.51
2022-11-24T07:43:48.365Z,0.55
2022-11-24T07:49:58.419Z,0.50
2022-11-24T07:56:02.496Z,0.43
2022-11-24T08:08:21.855Z,-0.64
2022-11-24T08:14:27.358Z,0.60
2022-11-24T08:20:45.189Z,0.53
2022-11-24T08:26:47.154Z,0.08
2022-11-24T08:32:49.129Z,0.32
2022-11-24T08:38:56.276Z,0.45
2022-11-24T08:44:59.203Z,0.87
2022-11-24T08:51:10.720Z,0.96
2022-11-24T08:57:20.219Z,0.58
2022-11-24T09:03:23.445Z,0.71
2022-11-24T09:09:25.509Z,0.33
2022-11-24T09:15:27.340Z,0.69
2022-11-24T09:21:30.460Z,0.64
2022-11-24T09:27:32.251Z,0.52
2022-11-24T09:33:34.952Z,0.54
2022-11-24T09:39:36.882Z,0.57
2022-11-24T09:46:06.144Z,0.85
2022-11-24T09:52:16.788Z,0.53
2022-11-24T09:58:43.202Z,0.57
2022-11-24T10:04:47.381Z,0.93
2022-11-24T10:11:00.693Z,0.71
2022-11-24T10:17:33.382Z,1.20
2022-11-24T10:23:50.424Z,1.10
2022-11-24T10:29:53.108Z,0.89
2022-11-24T10:35:56.578Z,0.81
2022-11-24T10:42:14.443Z,0.82
2022-11-24T10:48:24.327Z,1.02
2022-11-24T10:54:26.087Z,0.45
2022-11-24T11:00:34.156Z,0.93
2022-11-24T11:06:38.148Z,0.96
2022-11-24T11:12:44.312Z,0.96
2022-11-24T11:18:49.704Z,0.27
2022-11-24T11:25:05.959Z,0.63
2022-11-24T11:31:22.026Z,0.58
2022-11-24T11:37:28.412Z,0.71
2022-11-24T11:43:41.034Z,1.08
2022-11-24T11:49:43.472Z,0.71
2022-11-24T11:55:58.784Z,0.56
2022-11-24T12:02:19.406Z,1.08
2022-11-24T12:08:55.813Z,0.99
2022-11-24T12:15:04.564Z,1.18
2022-11-24T12:21:32.187Z,0.96
2022-11-24T12:28:22.193Z,1.08
2022-11-24T12:34:46.478Z,0.93
2022-11-24T12:41:41.635Z,1.18
2022-11-24T12:48:05.449Z,1.08
2022-11-24T12:54:13.144Z,1.05
2022-11-24T13:00:24.181Z,0.67
2022-11-24T13:06:35.877Z,0.94
2022-11-24T13:12:57.697Z,0.17
2022-11-24T13:19:02.690Z,0.87
2022-11-24T13:25:20.504Z,0.69
2022-11-24T13:31:23.337Z,0.69
2022-11-24T13:37:35.318Z,0.75
2022-11-24T13:43:37.873Z,0.75
2022-11-24T13:49:43.681Z,0.86
2022-11-24T13:56:08.733Z,0.64
2022-11-24T14:02:24.183Z,0.32
2022-11-24T14:08:28.833Z,0.92
2022-11-24T14:14:30.579Z,0.87
2022-11-24T14:20:32.369Z,0.58
2022-11-24T14:26:41.307Z,0.79
2022-11-24T14:33:00.769Z,0.79
2022-11-24T14:39:02.787Z,0.77
2022-11-24T14:45:05.000Z,0.69
2022-11-24T14:51:22.522Z,0.74
2022-11-24T14:57:24.202Z,0.76
2022-11-24T15:03:26.121Z,0.78
2022-11-24T15:09:53.131Z,0.72
2022-11-24T15:16:03.130Z,0.75
2022-11-24T15:22:34.366Z,0.81
2022-11-24T15:28:36.128Z,0.73
2022-11-24T15:34:37.947Z,0.30
2022-11-24T15:40:41.332Z,0.74
2022-11-24T15:46:43.111Z,0.16
2022-11-24T15:52:45.654Z,0.35
2022-11-24T15:58:47.550Z,0.81
2022-11-24T16:04:49.727Z,0.56
2022-11-24T16:10:51.645Z,0.81
2022-11-24T16:16:53.530Z,0.79
2022-11-24T16:22:55.345Z,0.77
2022-11-24T16:28:57.074Z,0.58
2022-11-24T16:34:58.892Z,0.22
2022-11-24T16:41:00.772Z,0.59
2022-11-24T16:47:02.663Z,0.76
2022-11-24T16:53:04.561Z,0.82
2022-11-24T16:59:06.331Z,0.34
2022-11-24T17:05:09.111Z,0.36
2022-11-24T17:11:18.666Z,0.86
2022-11-24T17:17:20.460Z,0.28
2022-11-24T17:23:22.347Z,0.55
2022-11-24T17:29:24.646Z,0.75
2022-11-24T17:35:26.447Z,0.55
2022-11-24T17:41:28.255Z,0.00
2022-11-24T17:47:30.408Z,0.31
2022-11-24T17:53:32.257Z,-0.04
2022-11-24T17:59:34.028Z,0.25
2022-11-24T18:05:36.694Z,0.58
2022-11-24T18:11:38.415Z,0.20
2022-11-24T18:17:40.196Z,0.60
2022-11-24T18:23:43.561Z,0.81
2022-11-24T18:29:45.339Z,0.99
2022-11-24T18:36:01.332Z,0.79
2022-11-24T18:42:03.185Z,0.80
2022-11-24T18:48:05.157Z,1.02
2022-11-24T18:54:06.928Z,0.43
2022-11-24T19:00:10.507Z,0.65
2022-11-24T19:06:36.354Z,0.56
2022-11-24T19:12:38.624Z,0.30
2022-11-24T19:18:40.504Z,0.54
2022-11-24T19:24:42.464Z,0.81
2022-11-24T19:30:45.590Z,0.72
2022-11-24T19:36:47.407Z,0.72
2022-11-24T19:42:49.262Z,0.65
2022-11-24T19:48:54.284Z,0.51
2022-11-24T19:54:56.215Z,0.60
2022-11-24T20:01:12.378Z,0.18
2022-11-24T20:07:14.289Z,0.62
2022-11-24T20:13:16.200Z,0.54
2022-11-24T20:19:18.861Z,0.34
2022-11-24T20:25:20.679Z,0.71
2022-11-24T20:31:25.758Z,0.90
2022-11-24T20:37:29.657Z,0.15
2022-11-24T20:43:38.511Z,-0.91
2022-11-24T20:49:54.511Z,0.37
2022-11-24T20:56:08.167Z,-0.49
2022-11-24T21:02:16.059Z,-0.10
2022-11-24T21:08:19.699Z,0.17
2022-11-24T21:14:25.274Z,0.05
2022-11-24T21:20:27.321Z,0.19
2022-11-24T21:26:31.073Z,-1.01
2022-11-24T21:32:40.417Z,-0.18
2022-11-24T21:38:55.841Z,0.09
2022-11-24T21:45:03.580Z,0.10
2022-11-24T21:51:12.089Z,0.09
2022-11-24T21:57:14.316Z,-0.52
2022-11-24T22:03:17.018Z,-0.88
2022-11-24T22:09:19.444Z,0.08
2022-11-24T22:15:21.128Z,-0.22
2022-11-24T22:21:29.414Z,0.12
2022-11-24T22:27:31.377Z,-0.71
2022-11-24T22:33:33.813Z,0.10
2022-11-24T22:39:39.551Z,-0.36
2022-11-24T22:45:41.921Z,-0.56
2022-11-24T22:51:47.393Z,-1.05
2022-11-24T22:57:51.287Z,-0.03
2022-11-24T23:03:57.188Z,0.14
2022-11-24T23:09:59.307Z,-0.25
2022-11-24T23:16:12.989Z,0.14
2022-11-24T23:22:15.213Z,0.10
2022-11-24T23:28:16.955Z,0.18
2022-11-24T23:34:18.782Z,-0.15
2022-11-24T23:40:33.046Z,-0.96
2022-11-24T23:46:35.130Z,-0.23
2022-11-24T23:52:37.734Z,-0.51
2022-11-24T23:58:40.540Z,-1.21
